sensor_id;sensor_type;location;lat;lon;timestamp;P1;durP1;ratioP1;P2;durP2;ratioP2
73321;SDS011;61549;37.044;22.128;2023-03-05T00:00:12;18.45;;;9.27;;
73321;SDS011;61549;37.044;22.128;2023-03-05T00:02:39;16.05;;;7.95;;
73321;SDS011;61549;37.044;22.128;2023-03-05T00:05:06;15.70;;;7.10;;
73321;SDS011;61549;37.044;22.128;2023-03-05T00:07:32;13.18;;;6.85;;
73321;SDS011;61549;37.044;22.128;2023-03-05T00:09:59;13.32;;;4.90;;
73321;SDS011;61549;37.044;22.128;2023-03-05T00:12:25;15.07;;;4.05;;
73321;SDS011;61549;37.044;22.128;2023-03-05T00:14:52;10.48;;;3.47;;
73321;SDS011;61549;37.044;22.128;2023-03-05T00:17:17;11.52;;;3.80;;
73321;SDS011;61549;37.044;22.128;2023-03-05T00:19:43;9.05;;;3.72;;
73321;SDS011;61549;37.044;22.128;2023-03-05T00:22:09;9.52;;;3.92;;
73321;SDS011;61549;37.044;22.128;2023-03-05T00:24:35;10.23;;;4.40;;
73321;SDS011;61549;37.044;22.128;2023-03-05T00:27:01;12.75;;;4.32;;
73321;SDS011;61549;37.044;22.128;2023-03-05T00:29:28;11.63;;;4.10;;
73321;SDS011;61549;37.044;22.128;2023-03-05T00:32:03;11.93;;;5.05;;
73321;SDS011;61549;37.044;22.128;2023-03-05T00:34:29;11.43;;;5.25;;
73321;SDS011;61549;37.044;22.128;2023-03-05T00:36:55;11.35;;;4.72;;
73321;SDS011;61549;37.044;22.128;2023-03-05T00:39:21;13.30;;;4.63;;
73321;SDS011;61549;37.044;22.128;2023-03-05T00:41:47;9.82;;;4.15;;
73321;SDS011;61549;37.044;22.128;2023-03-05T00:44:13;12.63;;;4.53;;
73321;SDS011;61549;37.044;22.128;2023-03-05T00:46:39;10.73;;;4.30;;
73321;SDS011;61549;37.044;22.128;2023-03-05T00:49:05;10.30;;;5.05;;
73321;SDS011;61549;37.044;22.128;2023-03-05T00:51:32;11.30;;;5.10;;
73321;SDS011;61549;37.044;22.128;2023-03-05T00:53:58;9.07;;;4.70;;
73321;SDS011;61549;37.044;22.128;2023-03-05T00:56:24;10.27;;;4.55;;
73321;SDS011;61549;37.044;22.128;2023-03-05T00:58:50;11.10;;;4.45;;
73321;SDS011;61549;37.044;22.128;2023-03-05T01:01:17;9.48;;;4.80;;
73321;SDS011;61549;37.044;22.128;2023-03-05T01:03:43;9.55;;;4.90;;
73321;SDS011;61549;37.044;22.128;2023-03-05T01:06:10;10.65;;;4.95;;
73321;SDS011;61549;37.044;22.128;2023-03-05T01:08:37;9.68;;;5.32;;
73321;SDS011;61549;37.044;22.128;2023-03-05T01:11:04;11.73;;;5.13;;
73321;SDS011;61549;37.044;22.128;2023-03-05T01:13:31;12.00;;;4.60;;
73321;SDS011;61549;37.044;22.128;2023-03-05T01:15:57;10.15;;;4.45;;
73321;SDS011;61549;37.044;22.128;2023-03-05T01:18:23;9.85;;;4.68;;
73321;SDS011;61549;37.044;22.128;2023-03-05T01:20:48;11.52;;;4.72;;
73321;SDS011;61549;37.044;22.128;2023-03-05T01:23:14;11.75;;;4.78;;
73321;SDS011;61549;37.044;22.128;2023-03-05T01:25:40;10.98;;;4.30;;
73321;SDS011;61549;37.044;22.128;2023-03-05T01:28:07;8.35;;;3.67;;
73321;SDS011;61549;37.044;22.128;2023-03-05T01:30:33;8.18;;;3.80;;
73321;SDS011;61549;37.044;22.128;2023-03-05T01:32:59;9.10;;;3.65;;
73321;SDS011;61549;37.044;22.128;2023-03-05T01:35:26;8.00;;;3.53;;
73321;SDS011;61549;37.044;22.128;2023-03-05T01:37:52;7.00;;;3.00;;
73321;SDS011;61549;37.044;22.128;2023-03-05T01:40:20;8.13;;;2.90;;
73321;SDS011;61549;37.044;22.128;2023-03-05T01:42:55;17.27;;;8.77;;
73321;SDS011;61549;37.044;22.128;2023-03-05T01:47:54;9.60;;;3.55;;
73321;SDS011;61549;37.044;22.128;2023-03-05T01:50:21;8.45;;;3.30;;
73321;SDS011;61549;37.044;22.128;2023-03-05T01:52:58;5.50;;;2.72;;
73321;SDS011;61549;37.044;22.128;2023-03-05T01:55:28;6.45;;;2.80;;
73321;SDS011;61549;37.044;22.128;2023-03-05T01:57:59;7.57;;;2.80;;
73321;SDS011;61549;37.044;22.128;2023-03-05T02:00:40;10.32;;;3.70;;
73321;SDS011;61549;37.044;22.128;2023-03-05T02:03:10;13.55;;;5.50;;
73321;SDS011;61549;37.044;22.128;2023-03-05T02:05:38;22.10;;;11.27;;
73321;SDS011;61549;37.044;22.128;2023-03-05T02:08:11;16.65;;;8.82;;
73321;SDS011;61549;37.044;22.128;2023-03-05T02:10:48;17.20;;;9.35;;
73321;SDS011;61549;37.044;22.128;2023-03-05T02:13:18;27.73;;;14.60;;
73321;SDS011;61549;37.044;22.128;2023-03-05T02:15:46;14.30;;;8.23;;
73321;SDS011;61549;37.044;22.128;2023-03-05T02:18:14;7.43;;;4.13;;
73321;SDS011;61549;37.044;22.128;2023-03-05T02:20:45;5.70;;;2.67;;
73321;SDS011;61549;37.044;22.128;2023-03-05T02:23:13;7.28;;;2.75;;
73321;SDS011;61549;37.044;22.128;2023-03-05T02:25:57;6.38;;;2.63;;
73321;SDS011;61549;37.044;22.128;2023-03-05T02:28:43;8.20;;;2.50;;
73321;SDS011;61549;37.044;22.128;2023-03-05T02:31:17;8.90;;;2.92;;
73321;SDS011;61549;37.044;22.128;2023-03-05T02:33:44;6.30;;;2.45;;
73321;SDS011;61549;37.044;22.128;2023-03-05T02:36:10;6.43;;;2.95;;
73321;SDS011;61549;37.044;22.128;2023-03-05T02:38:37;6.00;;;2.60;;
73321;SDS011;61549;37.044;22.128;2023-03-05T02:41:03;6.47;;;2.88;;
73321;SDS011;61549;37.044;22.128;2023-03-05T02:43:29;8.85;;;2.42;;
73321;SDS011;61549;37.044;22.128;2023-03-05T02:45:55;5.32;;;2.47;;
73321;SDS011;61549;37.044;22.128;2023-03-05T02:48:21;5.97;;;2.28;;
73321;SDS011;61549;37.044;22.128;2023-03-05T02:50:47;7.68;;;2.25;;
73321;SDS011;61549;37.044;22.128;2023-03-05T02:53:14;5.68;;;2.30;;
73321;SDS011;61549;37.044;22.128;2023-03-05T02:55:40;5.70;;;2.33;;
73321;SDS011;61549;37.044;22.128;2023-03-05T02:58:05;5.63;;;2.17;;
73321;SDS011;61549;37.044;22.128;2023-03-05T03:00:31;8.70;;;2.45;;
73321;SDS011;61549;37.044;22.128;2023-03-05T03:02:57;7.18;;;2.42;;
73321;SDS011;61549;37.044;22.128;2023-03-05T03:05:23;6.45;;;2.30;;
73321;SDS011;61549;37.044;22.128;2023-03-05T03:07:49;7.07;;;2.50;;
73321;SDS011;61549;37.044;22.128;2023-03-05T03:10:15;5.68;;;2.83;;
73321;SDS011;61549;37.044;22.128;2023-03-05T03:12:42;6.72;;;3.15;;
73321;SDS011;61549;37.044;22.128;2023-03-05T03:15:09;4.85;;;2.03;;
73321;SDS011;61549;37.044;22.128;2023-03-05T03:17:38;6.10;;;2.83;;
73321;SDS011;61549;37.044;22.128;2023-03-05T03:20:05;7.05;;;2.90;;
73321;SDS011;61549;37.044;22.128;2023-03-05T03:22:32;5.57;;;2.80;;
73321;SDS011;61549;37.044;22.128;2023-03-05T03:24:59;5.03;;;2.78;;
73321;SDS011;61549;37.044;22.128;2023-03-05T03:27:27;5.10;;;2.33;;
73321;SDS011;61549;37.044;22.128;2023-03-05T03:29:52;5.72;;;2.40;;
73321;SDS011;61549;37.044;22.128;2023-03-05T03:32:18;6.90;;;3.58;;
73321;SDS011;61549;37.044;22.128;2023-03-05T03:34:44;5.13;;;2.88;;
73321;SDS011;61549;37.044;22.128;2023-03-05T03:37:12;6.07;;;3.13;;
73321;SDS011;61549;37.044;22.128;2023-03-05T03:39:38;5.82;;;2.95;;
73321;SDS011;61549;37.044;22.128;2023-03-05T03:42:04;5.45;;;2.50;;
73321;SDS011;61549;37.044;22.128;2023-03-05T03:44:30;5.47;;;2.53;;
73321;SDS011;61549;37.044;22.128;2023-03-05T03:46:56;5.93;;;2.22;;
73321;SDS011;61549;37.044;22.128;2023-03-05T03:49:24;5.03;;;2.40;;
73321;SDS011;61549;37.044;22.128;2023-03-05T03:51:51;4.18;;;2.00;;
73321;SDS011;61549;37.044;22.128;2023-03-05T03:54:22;5.80;;;2.10;;
73321;SDS011;61549;37.044;22.128;2023-03-05T03:56:48;3.70;;;2.13;;
73321;SDS011;61549;37.044;22.128;2023-03-05T03:59:14;3.83;;;2.40;;
73321;SDS011;61549;37.044;22.128;2023-03-05T04:01:40;6.68;;;2.47;;
73321;SDS011;61549;37.044;22.128;2023-03-05T04:04:06;5.93;;;3.10;;
73321;SDS011;61549;37.044;22.128;2023-03-05T04:06:34;5.15;;;3.05;;
73321;SDS011;61549;37.044;22.128;2023-03-05T04:09:00;4.88;;;2.70;;
73321;SDS011;61549;37.044;22.128;2023-03-05T04:11:25;6.18;;;2.80;;
73321;SDS011;61549;37.044;22.128;2023-03-05T04:13:51;5.55;;;2.47;;
73321;SDS011;61549;37.044;22.128;2023-03-05T04:16:17;6.53;;;2.80;;
73321;SDS011;61549;37.044;22.128;2023-03-05T04:18:43;5.60;;;2.80;;
73321;SDS011;61549;37.044;22.128;2023-03-05T04:21:09;6.30;;;3.17;;
73321;SDS011;61549;37.044;22.128;2023-03-05T04:23:36;4.68;;;3.13;;
73321;SDS011;61549;37.044;22.128;2023-03-05T04:26:02;7.05;;;3.95;;
73321;SDS011;61549;37.044;22.128;2023-03-05T04:28:28;6.05;;;3.80;;
73321;SDS011;61549;37.044;22.128;2023-03-05T04:30:54;8.90;;;3.92;;
73321;SDS011;61549;37.044;22.128;2023-03-05T04:33:20;7.75;;;3.80;;
73321;SDS011;61549;37.044;22.128;2023-03-05T04:35:46;7.85;;;4.10;;
73321;SDS011;61549;37.044;22.128;2023-03-05T04:38:12;8.25;;;3.78;;
73321;SDS011;61549;37.044;22.128;2023-03-05T04:40:37;6.80;;;3.88;;
73321;SDS011;61549;37.044;22.128;2023-03-05T04:43:03;6.63;;;3.58;;
73321;SDS011;61549;37.044;22.128;2023-03-05T04:45:30;5.82;;;2.22;;
73321;SDS011;61549;37.044;22.128;2023-03-05T04:47:56;6.18;;;2.50;;
73321;SDS011;61549;37.044;22.128;2023-03-05T04:50:22;5.30;;;2.50;;
73321;SDS011;61549;37.044;22.128;2023-03-05T04:52:48;6.22;;;3.20;;
73321;SDS011;61549;37.044;22.128;2023-03-05T04:55:14;8.57;;;3.80;;
73321;SDS011;61549;37.044;22.128;2023-03-05T04:57:41;6.35;;;3.70;;
73321;SDS011;61549;37.044;22.128;2023-03-05T05:00:09;4.68;;;3.70;;
73321;SDS011;61549;37.044;22.128;2023-03-05T05:02:38;7.60;;;3.28;;
73321;SDS011;61549;37.044;22.128;2023-03-05T05:05:12;4.43;;;2.20;;
73321;SDS011;61549;37.044;22.128;2023-03-05T05:07:40;5.07;;;2.65;;
73321;SDS011;61549;37.044;22.128;2023-03-05T05:10:06;5.85;;;2.80;;
73321;SDS011;61549;37.044;22.128;2023-03-05T05:12:33;4.80;;;2.63;;
73321;SDS011;61549;37.044;22.128;2023-03-05T05:14:59;7.25;;;2.95;;
73321;SDS011;61549;37.044;22.128;2023-03-05T05:17:26;3.90;;;2.63;;
73321;SDS011;61549;37.044;22.128;2023-03-05T05:19:55;9.50;;;4.82;;
73321;SDS011;61549;37.044;22.128;2023-03-05T05:22:22;15.25;;;9.20;;
73321;SDS011;61549;37.044;22.128;2023-03-05T05:24:48;50.67;;;25.92;;
73321;SDS011;61549;37.044;22.128;2023-03-05T05:27:14;31.38;;;17.27;;
73321;SDS011;61549;37.044;22.128;2023-03-05T05:29:41;22.55;;;15.15;;
73321;SDS011;61549;37.044;22.128;2023-03-05T05:32:09;10.88;;;6.75;;
73321;SDS011;61549;37.044;22.128;2023-03-05T05:34:35;8.65;;;2.85;;
73321;SDS011;61549;37.044;22.128;2023-03-05T05:37:00;8.85;;;5.50;;
73321;SDS011;61549;37.044;22.128;2023-03-05T05:39:26;9.45;;;6.70;;
73321;SDS011;61549;37.044;22.128;2023-03-05T05:41:52;11.48;;;6.22;;
73321;SDS011;61549;37.044;22.128;2023-03-05T05:44:18;7.72;;;3.80;;
73321;SDS011;61549;37.044;22.128;2023-03-05T05:46:44;6.63;;;2.67;;
73321;SDS011;61549;37.044;22.128;2023-03-05T05:49:10;7.40;;;3.80;;
73321;SDS011;61549;37.044;22.128;2023-03-05T05:51:35;10.32;;;4.43;;
73321;SDS011;61549;37.044;22.128;2023-03-05T05:54:01;10.02;;;4.95;;
73321;SDS011;61549;37.044;22.128;2023-03-05T05:56:27;9.90;;;4.72;;
73321;SDS011;61549;37.044;22.128;2023-03-05T05:58:53;7.68;;;4.00;;
73321;SDS011;61549;37.044;22.128;2023-03-05T06:01:23;8.60;;;4.20;;
73321;SDS011;61549;37.044;22.128;2023-03-05T06:03:53;7.20;;;3.45;;
73321;SDS011;61549;37.044;22.128;2023-03-05T06:06:20;8.27;;;3.70;;
73321;SDS011;61549;37.044;22.128;2023-03-05T06:09:05;6.03;;;3.35;;
73321;SDS011;61549;37.044;22.128;2023-03-05T06:11:31;7.00;;;3.60;;
73321;SDS011;61549;37.044;22.128;2023-03-05T06:13:58;5.53;;;3.08;;
73321;SDS011;61549;37.044;22.128;2023-03-05T06:16:26;6.88;;;3.20;;
73321;SDS011;61549;37.044;22.128;2023-03-05T06:18:55;5.35;;;3.00;;
73321;SDS011;61549;37.044;22.128;2023-03-05T06:21:21;7.45;;;3.20;;
73321;SDS011;61549;37.044;22.128;2023-03-05T06:23:48;5.63;;;3.00;;
73321;SDS011;61549;37.044;22.128;2023-03-05T06:26:15;9.70;;;4.90;;
73321;SDS011;61549;37.044;22.128;2023-03-05T06:28:46;11.18;;;7.05;;
73321;SDS011;61549;37.044;22.128;2023-03-05T06:31:13;10.38;;;6.50;;
73321;SDS011;61549;37.044;22.128;2023-03-05T06:33:40;10.05;;;5.82;;
73321;SDS011;61549;37.044;22.128;2023-03-05T06:36:07;8.15;;;4.80;;
73321;SDS011;61549;37.044;22.128;2023-03-05T06:38:37;11.48;;;5.50;;
73321;SDS011;61549;37.044;22.128;2023-03-05T06:41:04;6.57;;;4.35;;
73321;SDS011;61549;37.044;22.128;2023-03-05T06:43:36;9.13;;;5.50;;
73321;SDS011;61549;37.044;22.128;2023-03-05T06:46:07;10.77;;;5.90;;
73321;SDS011;61549;37.044;22.128;2023-03-05T06:48:37;9.55;;;5.65;;
73321;SDS011;61549;37.044;22.128;2023-03-05T06:51:03;8.05;;;5.20;;
73321;SDS011;61549;37.044;22.128;2023-03-05T06:53:29;7.88;;;5.07;;
73321;SDS011;61549;37.044;22.128;2023-03-05T06:55:55;9.77;;;5.68;;
73321;SDS011;61549;37.044;22.128;2023-03-05T06:58:21;7.78;;;4.85;;
73321;SDS011;61549;37.044;22.128;2023-03-05T07:00:47;9.85;;;5.80;;
73321;SDS011;61549;37.044;22.128;2023-03-05T07:03:13;9.95;;;5.90;;
73321;SDS011;61549;37.044;22.128;2023-03-05T07:05:40;10.32;;;5.75;;
73321;SDS011;61549;37.044;22.128;2023-03-05T07:08:06;9.38;;;6.18;;
73321;SDS011;61549;37.044;22.128;2023-03-05T07:10:41;11.60;;;6.53;;
73321;SDS011;61549;37.044;22.128;2023-03-05T07:13:08;13.25;;;7.22;;
73321;SDS011;61549;37.044;22.128;2023-03-05T07:15:37;11.68;;;7.20;;
73321;SDS011;61549;37.044;22.128;2023-03-05T07:18:04;13.82;;;8.25;;
73321;SDS011;61549;37.044;22.128;2023-03-05T07:20:30;15.57;;;9.35;;
73321;SDS011;61549;37.044;22.128;2023-03-05T07:22:59;13.45;;;8.88;;
73321;SDS011;61549;37.044;22.128;2023-03-05T07:25:25;13.35;;;9.57;;
73321;SDS011;61549;37.044;22.128;2023-03-05T07:27:51;11.70;;;7.25;;
73321;SDS011;61549;37.044;22.128;2023-03-05T07:30:17;9.73;;;4.97;;
73321;SDS011;61549;37.044;22.128;2023-03-05T07:32:43;18.02;;;4.72;;
73321;SDS011;61549;37.044;22.128;2023-03-05T07:35:09;11.13;;;4.78;;
73321;SDS011;61549;37.044;22.128;2023-03-05T07:37:34;7.22;;;3.30;;
73321;SDS011;61549;37.044;22.128;2023-03-05T07:40:00;6.57;;;2.88;;
73321;SDS011;61549;37.044;22.128;2023-03-05T07:42:27;5.70;;;2.45;;
73321;SDS011;61549;37.044;22.128;2023-03-05T07:44:55;4.63;;;2.33;;
73321;SDS011;61549;37.044;22.128;2023-03-05T07:47:21;4.95;;;2.20;;
73321;SDS011;61549;37.044;22.128;2023-03-05T07:49:51;5.57;;;2.30;;
73321;SDS011;61549;37.044;22.128;2023-03-05T07:52:17;6.45;;;2.65;;
73321;SDS011;61549;37.044;22.128;2023-03-05T07:54:43;5.35;;;3.10;;
73321;SDS011;61549;37.044;22.128;2023-03-05T07:57:09;3.92;;;2.30;;
73321;SDS011;61549;37.044;22.128;2023-03-05T07:59:37;6.30;;;2.13;;
73321;SDS011;61549;37.044;22.128;2023-03-05T08:02:03;4.07;;;2.28;;
73321;SDS011;61549;37.044;22.128;2023-03-05T08:04:30;5.30;;;1.88;;
73321;SDS011;61549;37.044;22.128;2023-03-05T08:06:58;5.13;;;2.00;;
73321;SDS011;61549;37.044;22.128;2023-03-05T08:09:24;4.15;;;1.60;;
73321;SDS011;61549;37.044;22.128;2023-03-05T08:11:52;2.03;;;1.00;;
73321;SDS011;61549;37.044;22.128;2023-03-05T08:14:18;1.48;;;0.77;;
73321;SDS011;61549;37.044;22.128;2023-03-05T08:16:43;1.85;;;1.33;;
73321;SDS011;61549;37.044;22.128;2023-03-05T08:19:10;5.15;;;1.20;;
73321;SDS011;61549;37.044;22.128;2023-03-05T08:21:37;3.17;;;1.10;;
73321;SDS011;61549;37.044;22.128;2023-03-05T08:24:04;3.90;;;1.13;;
73321;SDS011;61549;37.044;22.128;2023-03-05T08:26:32;2.25;;;1.05;;
73321;SDS011;61549;37.044;22.128;2023-03-05T08:29:01;4.70;;;1.30;;
73321;SDS011;61549;37.044;22.128;2023-03-05T08:31:28;3.55;;;1.15;;
73321;SDS011;61549;37.044;22.128;2023-03-05T08:33:55;3.42;;;1.25;;
73321;SDS011;61549;37.044;22.128;2023-03-05T08:36:21;2.95;;;0.98;;
73321;SDS011;61549;37.044;22.128;2023-03-05T08:38:48;2.13;;;1.10;;
73321;SDS011;61549;37.044;22.128;2023-03-05T08:41:15;3.15;;;1.42;;
73321;SDS011;61549;37.044;22.128;2023-03-05T08:43:41;2.30;;;1.48;;
73321;SDS011;61549;37.044;22.128;2023-03-05T08:46:09;6.00;;;1.50;;
73321;SDS011;61549;37.044;22.128;2023-03-05T08:48:38;2.28;;;1.50;;
73321;SDS011;61549;37.044;22.128;2023-03-05T08:53:38;2.13;;;1.50;;
73321;SDS011;61549;37.044;22.128;2023-03-05T08:56:04;3.00;;;1.40;;
73321;SDS011;61549;37.044;22.128;2023-03-05T08:58:30;6.35;;;2.30;;
73321;SDS011;61549;37.044;22.128;2023-03-05T09:00:56;12.07;;;7.30;;
73321;SDS011;61549;37.044;22.128;2023-03-05T09:03:23;5.68;;;3.10;;
73321;SDS011;61549;37.044;22.128;2023-03-05T09:05:49;6.90;;;4.10;;
73321;SDS011;61549;37.044;22.128;2023-03-05T09:08:15;12.93;;;9.15;;
73321;SDS011;61549;37.044;22.128;2023-03-05T09:10:50;19.00;;;12.85;;
73321;SDS011;61549;37.044;22.128;2023-03-05T09:13:16;7.63;;;5.47;;
73321;SDS011;61549;37.044;22.128;2023-03-05T09:15:42;16.42;;;9.60;;
73321;SDS011;61549;37.044;22.128;2023-03-05T09:18:12;14.63;;;9.50;;
73321;SDS011;61549;37.044;22.128;2023-03-05T09:20:39;7.88;;;4.85;;
73321;SDS011;61549;37.044;22.128;2023-03-05T09:23:05;3.05;;;0.90;;
73321;SDS011;61549;37.044;22.128;2023-03-05T09:25:31;2.15;;;1.20;;
73321;SDS011;61549;37.044;22.128;2023-03-05T09:27:59;2.00;;;0.57;;
73321;SDS011;61549;37.044;22.128;2023-03-05T09:30:24;3.22;;;1.02;;
73321;SDS011;61549;37.044;22.128;2023-03-05T09:32:56;1.73;;;0.77;;
73321;SDS011;61549;37.044;22.128;2023-03-05T09:35:22;6.32;;;5.38;;
73321;SDS011;61549;37.044;22.128;2023-03-05T09:37:48;8.35;;;5.15;;
73321;SDS011;61549;37.044;22.128;2023-03-05T09:40:14;6.97;;;5.22;;
73321;SDS011;61549;37.044;22.128;2023-03-05T09:46:04;9.07;;;5.63;;
73321;SDS011;61549;37.044;22.128;2023-03-05T09:51:24;7.75;;;3.42;;
73321;SDS011;61549;37.044;22.128;2023-03-05T09:56:28;1.27;;;0.80;;
73321;SDS011;61549;37.044;22.128;2023-03-05T10:01:51;4.40;;;1.17;;
73321;SDS011;61549;37.044;22.128;2023-03-05T10:04:22;3.13;;;0.95;;
73321;SDS011;61549;37.044;22.128;2023-03-05T10:15:39;2.65;;;0.73;;
73321;SDS011;61549;37.044;22.128;2023-03-05T10:21:20;3.35;;;0.70;;
73321;SDS011;61549;37.044;22.128;2023-03-05T10:23:58;1.40;;;0.70;;
73321;SDS011;61549;37.044;22.128;2023-03-05T10:32:27;2.10;;;0.63;;
73321;SDS011;61549;37.044;22.128;2023-03-05T10:35:31;4.55;;;1.35;;
73321;SDS011;61549;37.044;22.128;2023-03-05T10:40:56;2.22;;;1.05;;
73321;SDS011;61549;37.044;22.128;2023-03-05T10:46:23;2.53;;;1.20;;
73321;SDS011;61549;37.044;22.128;2023-03-05T10:48:54;2.83;;;1.00;;
73321;SDS011;61549;37.044;22.128;2023-03-05T10:51:32;2.88;;;0.85;;
73321;SDS011;61549;37.044;22.128;2023-03-05T10:59:38;2.63;;;0.70;;
73321;SDS011;61549;37.044;22.128;2023-03-05T11:02:10;2.38;;;0.75;;
73321;SDS011;61549;37.044;22.128;2023-03-05T11:04:37;2.95;;;1.13;;
73321;SDS011;61549;37.044;22.128;2023-03-05T11:07:05;4.38;;;0.80;;
73321;SDS011;61549;37.044;22.128;2023-03-05T11:09:41;3.67;;;0.93;;
73321;SDS011;61549;37.044;22.128;2023-03-05T11:14:38;2.28;;;1.02;;
73321;SDS011;61549;37.044;22.128;2023-03-05T11:20:49;2.30;;;0.90;;
73321;SDS011;61549;37.044;22.128;2023-03-05T11:23:01;4.78;;;1.60;;
73321;SDS011;61549;37.044;22.128;2023-03-05T11:29:13;3.85;;;1.90;;
73321;SDS011;61549;37.044;22.128;2023-03-05T11:39:17;2.42;;;1.10;;
73321;SDS011;61549;37.044;22.128;2023-03-05T11:44:19;4.85;;;1.02;;
73321;SDS011;61549;37.044;22.128;2023-03-05T11:46:47;2.53;;;1.00;;
73321;SDS011;61549;37.044;22.128;2023-03-05T11:49:26;4.68;;;1.67;;
73321;SDS011;61549;37.044;22.128;2023-03-05T11:54:21;3.78;;;1.55;;
73321;SDS011;61549;37.044;22.128;2023-03-05T11:57:10;4.32;;;1.60;;
73321;SDS011;61549;37.044;22.128;2023-03-05T11:59:39;3.20;;;1.30;;
73321;SDS011;61549;37.044;22.128;2023-03-05T12:02:13;3.63;;;1.20;;
73321;SDS011;61549;37.044;22.128;2023-03-05T12:04:48;2.03;;;0.90;;
73321;SDS011;61549;37.044;22.128;2023-03-05T12:07:17;5.68;;;1.40;;
73321;SDS011;61549;37.044;22.128;2023-03-05T12:10:13;3.40;;;1.30;;
73321;SDS011;61549;37.044;22.128;2023-03-05T12:18:24;3.75;;;1.75;;
73321;SDS011;61549;37.044;22.128;2023-03-05T12:23:51;5.30;;;2.88;;
73321;SDS011;61549;37.044;22.128;2023-03-05T12:29:25;2.75;;;1.40;;
73321;SDS011;61549;37.044;22.128;2023-03-05T12:32:00;3.03;;;1.20;;
73321;SDS011;61549;37.044;22.128;2023-03-05T12:34:56;3.38;;;1.40;;
73321;SDS011;61549;37.044;22.128;2023-03-05T12:40:01;3.00;;;1.27;;
73321;SDS011;61549;37.044;22.128;2023-03-05T12:47:42;3.92;;;2.30;;
73321;SDS011;61549;37.044;22.128;2023-03-05T12:52:54;1.02;;;0.70;;
73321;SDS011;61549;37.044;22.128;2023-03-05T12:57:57;3.00;;;1.40;;
73321;SDS011;61549;37.044;22.128;2023-03-05T13:00:29;5.50;;;1.40;;
73321;SDS011;61549;37.044;22.128;2023-03-05T13:05:35;3.03;;;0.93;;
73321;SDS011;61549;37.044;22.128;2023-03-05T13:08:12;2.42;;;1.00;;
73321;SDS011;61549;37.044;22.128;2023-03-05T13:10:53;4.40;;;1.02;;
73321;SDS011;61549;37.044;22.128;2023-03-05T13:13:21;3.10;;;0.80;;
73321;SDS011;61549;37.044;22.128;2023-03-05T13:15:50;3.15;;;1.17;;
73321;SDS011;61549;37.044;22.128;2023-03-05T13:18:20;2.83;;;1.10;;
73321;SDS011;61549;37.044;22.128;2023-03-05T13:20:59;3.03;;;1.13;;
73321;SDS011;61549;37.044;22.128;2023-03-05T13:23:29;6.05;;;2.20;;
73321;SDS011;61549;37.044;22.128;2023-03-05T13:29:04;4.35;;;1.80;;
73321;SDS011;61549;37.044;22.128;2023-03-05T13:31:32;2.88;;;2.13;;
73321;SDS011;61549;37.044;22.128;2023-03-05T13:34:13;4.38;;;2.60;;
73321;SDS011;61549;37.044;22.128;2023-03-05T13:36:56;6.05;;;2.50;;
73321;SDS011;61549;37.044;22.128;2023-03-05T13:39:31;3.17;;;2.50;;
73321;SDS011;61549;37.044;22.128;2023-03-05T13:42:25;3.78;;;1.85;;
73321;SDS011;61549;37.044;22.128;2023-03-05T13:44:59;4.45;;;1.90;;
73321;SDS011;61549;37.044;22.128;2023-03-05T13:47:32;4.28;;;1.65;;
73321;SDS011;61549;37.044;22.128;2023-03-05T13:50:00;1.63;;;1.17;;
73321;SDS011;61549;37.044;22.128;2023-03-05T13:52:31;3.40;;;1.90;;
73321;SDS011;61549;37.044;22.128;2023-03-05T13:54:59;3.60;;;1.30;;
73321;SDS011;61549;37.044;22.128;2023-03-05T13:57:33;3.05;;;1.58;;
73321;SDS011;61549;37.044;22.128;2023-03-05T14:03:01;1.20;;;0.95;;
73321;SDS011;61549;37.044;22.128;2023-03-05T14:05:35;2.65;;;1.20;;
73321;SDS011;61549;37.044;22.128;2023-03-05T14:08:12;6.40;;;2.38;;
73321;SDS011;61549;37.044;22.128;2023-03-05T14:10:44;8.05;;;2.40;;
73321;SDS011;61549;37.044;22.128;2023-03-05T14:13:12;4.15;;;2.33;;
73321;SDS011;61549;37.044;22.128;2023-03-05T14:15:43;7.03;;;2.10;;
73321;SDS011;61549;37.044;22.128;2023-03-05T14:18:34;3.85;;;2.45;;
73321;SDS011;61549;37.044;22.128;2023-03-05T14:21:01;4.22;;;1.85;;
73321;SDS011;61549;37.044;22.128;2023-03-05T14:23:39;3.72;;;1.40;;
73321;SDS011;61549;37.044;22.128;2023-03-05T14:32:00;1.95;;;1.52;;
73321;SDS011;61549;37.044;22.128;2023-03-05T14:34:35;3.40;;;1.80;;
73321;SDS011;61549;37.044;22.128;2023-03-05T14:37:06;2.55;;;1.58;;
73321;SDS011;61549;37.044;22.128;2023-03-05T14:39:49;3.63;;;1.90;;
73321;SDS011;61549;37.044;22.128;2023-03-05T14:42:26;4.07;;;3.38;;
73321;SDS011;61549;37.044;22.128;2023-03-05T14:44:56;8.70;;;5.40;;
73321;SDS011;61549;37.044;22.128;2023-03-05T14:47:26;5.03;;;3.38;;
73321;SDS011;61549;37.044;22.128;2023-03-05T14:49:52;15.10;;;7.70;;
73321;SDS011;61549;37.044;22.128;2023-03-05T14:52:19;3.90;;;2.30;;
73321;SDS011;61549;37.044;22.128;2023-03-05T14:54:50;8.90;;;4.55;;
73321;SDS011;61549;37.044;22.128;2023-03-05T14:57:17;7.78;;;4.50;;
73321;SDS011;61549;37.044;22.128;2023-03-05T14:59:46;2.63;;;2.00;;
73321;SDS011;61549;37.044;22.128;2023-03-05T15:02:15;4.38;;;2.47;;
73321;SDS011;61549;37.044;22.128;2023-03-05T15:04:47;15.07;;;9.23;;
73321;SDS011;61549;37.044;22.128;2023-03-05T15:07:17;5.43;;;3.78;;
73321;SDS011;61549;37.044;22.128;2023-03-05T15:09:48;5.32;;;2.88;;
73321;SDS011;61549;37.044;22.128;2023-03-05T15:12:14;6.63;;;2.80;;
73321;SDS011;61549;37.044;22.128;2023-03-05T15:14:41;20.92;;;10.77;;
73321;SDS011;61549;37.044;22.128;2023-03-05T15:17:12;6.43;;;3.92;;
73321;SDS011;61549;37.044;22.128;2023-03-05T15:19:47;11.70;;;6.60;;
73321;SDS011;61549;37.044;22.128;2023-03-05T15:22:13;14.73;;;8.38;;
73321;SDS011;61549;37.044;22.128;2023-03-05T15:24:40;10.45;;;6.25;;
73321;SDS011;61549;37.044;22.128;2023-03-05T15:27:06;10.05;;;5.18;;
73321;SDS011;61549;37.044;22.128;2023-03-05T15:29:33;7.72;;;5.40;;
73321;SDS011;61549;37.044;22.128;2023-03-05T15:31:59;5.00;;;3.40;;
73321;SDS011;61549;37.044;22.128;2023-03-05T15:34:27;4.88;;;3.40;;
73321;SDS011;61549;37.044;22.128;2023-03-05T15:36:53;4.88;;;2.80;;
73321;SDS011;61549;37.044;22.128;2023-03-05T15:39:20;10.88;;;6.22;;
73321;SDS011;61549;37.044;22.128;2023-03-05T15:41:49;12.48;;;8.20;;
73321;SDS011;61549;37.044;22.128;2023-03-05T15:44:15;12.68;;;7.43;;
73321;SDS011;61549;37.044;22.128;2023-03-05T15:46:41;8.30;;;5.55;;
73321;SDS011;61549;37.044;22.128;2023-03-05T15:49:07;8.23;;;5.60;;
73321;SDS011;61549;37.044;22.128;2023-03-05T15:51:32;6.50;;;4.28;;
73321;SDS011;61549;37.044;22.128;2023-03-05T15:53:58;6.60;;;3.95;;
73321;SDS011;61549;37.044;22.128;2023-03-05T15:56:24;8.85;;;4.70;;
73321;SDS011;61549;37.044;22.128;2023-03-05T15:58:50;16.35;;;9.77;;
73321;SDS011;61549;37.044;22.128;2023-03-05T16:01:16;14.40;;;8.80;;
73321;SDS011;61549;37.044;22.128;2023-03-05T16:03:47;26.83;;;14.38;;
73321;SDS011;61549;37.044;22.128;2023-03-05T16:06:13;18.00;;;9.98;;
73321;SDS011;61549;37.044;22.128;2023-03-05T16:08:44;15.02;;;8.95;;
73321;SDS011;61549;37.044;22.128;2023-03-05T16:11:11;35.05;;;20.42;;
73321;SDS011;61549;37.044;22.128;2023-03-05T16:13:37;21.38;;;13.57;;
73321;SDS011;61549;37.044;22.128;2023-03-05T16:18:36;15.30;;;10.05;;
73321;SDS011;61549;37.044;22.128;2023-03-05T16:21:05;15.73;;;11.13;;
73321;SDS011;61549;37.044;22.128;2023-03-05T16:23:31;15.75;;;10.40;;
73321;SDS011;61549;37.044;22.128;2023-03-05T16:25:57;16.40;;;11.27;;
73321;SDS011;61549;37.044;22.128;2023-03-05T16:28:22;18.83;;;14.98;;